sensor_id;sensor_type;location;lat;lon;timestamp;P1;durP1;ratioP1;P2;durP2;ratioP2
70927;SDS011;58587;53.034;18.576;2023-03-30T00:00:45;24.53;;;10.87;;
70927;SDS011;58587;53.034;18.576;2023-03-30T00:03:11;19.87;;;9.70;;
70927;SDS011;58587;53.034;18.576;2023-03-30T00:05:36;22.93;;;10.73;;
70927;SDS011;58587;53.034;18.576;2023-03-30T00:08:02;22.80;;;11.32;;
70927;SDS011;58587;53.034;18.576;2023-03-30T00:10:28;22.25;;;11.35;;
70927;SDS011;58587;53.034;18.576;2023-03-30T00:12:53;24.50;;;11.03;;
70927;SDS011;58587;53.034;18.576;2023-03-30T00:15:19;23.15;;;10.27;;
70927;SDS011;58587;53.034;18.576;2023-03-30T00:17:46;22.67;;;10.73;;
70927;SDS011;58587;53.034;18.576;2023-03-30T00:20:12;23.90;;;10.83;;
70927;SDS011;58587;53.034;18.576;2023-03-30T00:22:38;23.23;;;11.35;;
70927;SDS011;58587;53.034;18.576;2023-03-30T00:25:09;24.52;;;10.65;;
70927;SDS011;58587;53.034;18.576;2023-03-30T00:27:36;23.73;;;10.85;;
70927;SDS011;58587;53.034;18.576;2023-03-30T00:30:02;22.47;;;10.97;;
70927;SDS011;58587;53.034;18.576;2023-03-30T00:32:28;25.13;;;11.52;;
70927;SDS011;58587;53.034;18.576;2023-03-30T00:34:53;22.83;;;11.37;;
70927;SDS011;58587;53.034;18.576;2023-03-30T00:37:19;24.37;;;11.43;;
70927;SDS011;58587;53.034;18.576;2023-03-30T00:39:44;29.47;;;12.27;;
70927;SDS011;58587;53.034;18.576;2023-03-30T00:42:12;25.85;;;11.38;;
70927;SDS011;58587;53.034;18.576;2023-03-30T00:47:37;26.33;;;11.82;;
70927;SDS011;58587;53.034;18.576;2023-03-30T00:50:07;23.30;;;10.98;;
70927;SDS011;58587;53.034;18.576;2023-03-30T00:52:33;27.95;;;11.93;;
70927;SDS011;58587;53.034;18.576;2023-03-30T00:55:01;24.92;;;12.07;;
70927;SDS011;58587;53.034;18.576;2023-03-30T00:57:28;26.25;;;12.52;;
70927;SDS011;58587;53.034;18.576;2023-03-30T00:59:54;25.92;;;12.27;;
70927;SDS011;58587;53.034;18.576;2023-03-30T01:02:21;24.02;;;11.80;;
70927;SDS011;58587;53.034;18.576;2023-03-30T01:04:47;25.52;;;11.32;;
70927;SDS011;58587;53.034;18.576;2023-03-30T01:07:17;26.00;;;13.07;;
70927;SDS011;58587;53.034;18.576;2023-03-30T01:09:43;21.35;;;10.85;;
70927;SDS011;58587;53.034;18.576;2023-03-30T01:12:08;24.33;;;11.20;;
70927;SDS011;58587;53.034;18.576;2023-03-30T01:14:34;23.58;;;12.07;;
70927;SDS011;58587;53.034;18.576;2023-03-30T01:17:14;23.47;;;10.83;;
70927;SDS011;58587;53.034;18.576;2023-03-30T01:25:50;22.20;;;10.73;;
70927;SDS011;58587;53.034;18.576;2023-03-30T01:28:46;24.23;;;11.15;;
70927;SDS011;58587;53.034;18.576;2023-03-30T01:39:49;28.27;;;12.32;;
70927;SDS011;58587;53.034;18.576;2023-03-30T01:50:15;34.88;;;13.40;;
70927;SDS011;58587;53.034;18.576;2023-03-30T01:55:37;24.48;;;10.98;;
70927;SDS011;58587;53.034;18.576;2023-03-30T02:00:52;20.88;;;10.10;;
70927;SDS011;58587;53.034;18.576;2023-03-30T02:03:21;21.70;;;10.23;;
70927;SDS011;58587;53.034;18.576;2023-03-30T02:05:52;22.25;;;9.85;;
70927;SDS011;58587;53.034;18.576;2023-03-30T02:08:23;23.20;;;10.52;;
70927;SDS011;58587;53.034;18.576;2023-03-30T02:10:52;21.50;;;10.18;;
70927;SDS011;58587;53.034;18.576;2023-03-30T02:13:21;20.75;;;10.07;;
70927;SDS011;58587;53.034;18.576;2023-03-30T02:15:48;21.35;;;10.23;;
70927;SDS011;58587;53.034;18.576;2023-03-30T02:18:16;22.05;;;10.30;;
70927;SDS011;58587;53.034;18.576;2023-03-30T02:20:44;20.08;;;9.93;;
70927;SDS011;58587;53.034;18.576;2023-03-30T02:23:09;20.60;;;10.73;;
70927;SDS011;58587;53.034;18.576;2023-03-30T02:25:35;22.83;;;9.88;;
70927;SDS011;58587;53.034;18.576;2023-03-30T02:28:03;24.37;;;10.60;;
70927;SDS011;58587;53.034;18.576;2023-03-30T02:30:33;20.83;;;9.85;;
70927;SDS011;58587;53.034;18.576;2023-03-30T02:33:02;23.63;;;10.63;;
70927;SDS011;58587;53.034;18.576;2023-03-30T02:38:28;70.07;;;26.60;;
70927;SDS011;58587;53.034;18.576;2023-03-30T02:43:44;37.85;;;13.20;;
70927;SDS011;58587;53.034;18.576;2023-03-30T02:55:39;29.80;;;12.40;;
70927;SDS011;58587;53.034;18.576;2023-03-30T02:58:15;24.50;;;10.65;;
70927;SDS011;58587;53.034;18.576;2023-03-30T03:00:48;21.48;;;10.82;;
70927;SDS011;58587;53.034;18.576;2023-03-30T03:03:21;22.15;;;10.70;;
70927;SDS011;58587;53.034;18.576;2023-03-30T03:05:51;22.25;;;11.13;;
70927;SDS011;58587;53.034;18.576;2023-03-30T03:08:23;23.87;;;10.60;;
70927;SDS011;58587;53.034;18.576;2023-03-30T03:10:49;20.73;;;11.05;;
70927;SDS011;58587;53.034;18.576;2023-03-30T03:13:15;21.08;;;11.27;;
70927;SDS011;58587;53.034;18.576;2023-03-30T03:15:42;22.13;;;11.20;;
70927;SDS011;58587;53.034;18.576;2023-03-30T03:18:10;22.92;;;10.90;;
70927;SDS011;58587;53.034;18.576;2023-03-30T03:20:36;22.30;;;10.77;;
70927;SDS011;58587;53.034;18.576;2023-03-30T03:23:02;22.60;;;12.02;;
70927;SDS011;58587;53.034;18.576;2023-03-30T03:25:28;19.92;;;9.90;;
70927;SDS011;58587;53.034;18.576;2023-03-30T03:27:54;21.87;;;11.20;;
70927;SDS011;58587;53.034;18.576;2023-03-30T03:30:19;24.13;;;12.45;;
70927;SDS011;58587;53.034;18.576;2023-03-30T03:32:45;39.72;;;20.77;;
70927;SDS011;58587;53.034;18.576;2023-03-30T03:35:11;48.90;;;27.73;;
70927;SDS011;58587;53.034;18.576;2023-03-30T03:37:36;45.92;;;26.67;;
70927;SDS011;58587;53.034;18.576;2023-03-30T03:40:01;40.97;;;22.27;;
70927;SDS011;58587;53.034;18.576;2023-03-30T03:42:29;30.95;;;16.58;;
70927;SDS011;58587;53.034;18.576;2023-03-30T03:44:55;28.27;;;14.87;;
70927;SDS011;58587;53.034;18.576;2023-03-30T03:47:20;24.33;;;12.87;;
70927;SDS011;58587;53.034;18.576;2023-03-30T03:49:46;23.45;;;12.25;;
70927;SDS011;58587;53.034;18.576;2023-03-30T03:52:12;25.43;;;12.17;;
70927;SDS011;58587;53.034;18.576;2023-03-30T03:54:37;24.63;;;12.20;;
70927;SDS011;58587;53.034;18.576;2023-03-30T03:57:02;24.00;;;11.90;;
70927;SDS011;58587;53.034;18.576;2023-03-30T03:59:29;25.85;;;13.32;;
70927;SDS011;58587;53.034;18.576;2023-03-30T04:01:55;25.57;;;12.47;;
70927;SDS011;58587;53.034;18.576;2023-03-30T04:04:20;26.57;;;12.43;;
70927;SDS011;58587;53.034;18.576;2023-03-30T04:06:45;28.77;;;13.87;;
70927;SDS011;58587;53.034;18.576;2023-03-30T04:09:11;26.58;;;13.35;;
70927;SDS011;58587;53.034;18.576;2023-03-30T04:11:36;25.60;;;12.93;;
70927;SDS011;58587;53.034;18.576;2023-03-30T04:14:01;29.37;;;14.17;;
70927;SDS011;58587;53.034;18.576;2023-03-30T04:16:27;23.97;;;12.17;;
70927;SDS011;58587;53.034;18.576;2023-03-30T04:18:52;22.50;;;11.87;;
70927;SDS011;58587;53.034;18.576;2023-03-30T04:21:18;29.55;;;13.40;;
70927;SDS011;58587;53.034;18.576;2023-03-30T04:23:44;31.40;;;13.15;;
70927;SDS011;58587;53.034;18.576;2023-03-30T04:26:12;24.20;;;12.00;;
70927;SDS011;58587;53.034;18.576;2023-03-30T04:28:39;23.83;;;11.82;;
70927;SDS011;58587;53.034;18.576;2023-03-30T04:31:05;22.80;;;11.17;;
70927;SDS011;58587;53.034;18.576;2023-03-30T04:33:35;22.15;;;11.05;;
70927;SDS011;58587;53.034;18.576;2023-03-30T04:36:03;22.30;;;11.63;;
70927;SDS011;58587;53.034;18.576;2023-03-30T04:38:28;23.33;;;12.43;;
70927;SDS011;58587;53.034;18.576;2023-03-30T04:40:54;22.43;;;11.40;;
70927;SDS011;58587;53.034;18.576;2023-03-30T04:43:20;22.90;;;11.83;;
70927;SDS011;58587;53.034;18.576;2023-03-30T04:45:53;18.48;;;11.07;;
70927;SDS011;58587;53.034;18.576;2023-03-30T04:48:19;30.23;;;11.88;;
70927;SDS011;58587;53.034;18.576;2023-03-30T04:50:46;21.15;;;10.95;;
70927;SDS011;58587;53.034;18.576;2023-03-30T04:53:13;23.23;;;11.70;;
70927;SDS011;58587;53.034;18.576;2023-03-30T04:55:40;20.87;;;11.10;;
70927;SDS011;58587;53.034;18.576;2023-03-30T04:58:07;27.40;;;12.18;;
70927;SDS011;58587;53.034;18.576;2023-03-30T05:00:35;25.45;;;12.43;;
70927;SDS011;58587;53.034;18.576;2023-03-30T05:03:00;25.37;;;11.70;;
70927;SDS011;58587;53.034;18.576;2023-03-30T05:05:26;24.13;;;11.87;;
70927;SDS011;58587;53.034;18.576;2023-03-30T05:07:51;23.40;;;12.32;;
70927;SDS011;58587;53.034;18.576;2023-03-30T05:10:17;28.53;;;12.30;;
70927;SDS011;58587;53.034;18.576;2023-03-30T05:12:43;22.98;;;12.02;;
70927;SDS011;58587;53.034;18.576;2023-03-30T05:15:08;24.53;;;12.70;;
70927;SDS011;58587;53.034;18.576;2023-03-30T05:17:34;24.63;;;12.43;;
70927;SDS011;58587;53.034;18.576;2023-03-30T05:20:02;25.40;;;12.93;;
70927;SDS011;58587;53.034;18.576;2023-03-30T05:22:32;24.45;;;12.70;;
70927;SDS011;58587;53.034;18.576;2023-03-30T05:24:57;24.77;;;12.57;;
70927;SDS011;58587;53.034;18.576;2023-03-30T09:46:25;25.23;;;14.10;;
70927;SDS011;58587;53.034;18.576;2023-03-30T09:48:50;21.03;;;13.57;;
70927;SDS011;58587;53.034;18.576;2023-03-30T09:51:20;20.83;;;13.43;;
70927;SDS011;58587;53.034;18.576;2023-03-30T09:53:47;21.80;;;13.43;;
70927;SDS011;58587;53.034;18.576;2023-03-30T09:56:25;25.33;;;15.90;;
70927;SDS011;58587;53.034;18.576;2023-03-30T09:58:52;24.10;;;15.27;;
70927;SDS011;58587;53.034;18.576;2023-03-30T10:01:18;23.25;;;14.30;;
70927;SDS011;58587;53.034;18.576;2023-03-30T10:03:45;32.80;;;18.92;;
70927;SDS011;58587;53.034;18.576;2023-03-30T10:06:29;28.83;;;16.85;;
70927;SDS011;58587;53.034;18.576;2023-03-30T10:09:00;23.07;;;14.60;;
70927;SDS011;58587;53.034;18.576;2023-03-30T10:11:34;23.25;;;14.07;;
70927;SDS011;58587;53.034;18.576;2023-03-30T10:14:02;22.25;;;13.40;;
70927;SDS011;58587;53.034;18.576;2023-03-30T10:16:29;24.38;;;14.48;;
70927;SDS011;58587;53.034;18.576;2023-03-30T10:18:59;23.30;;;13.82;;
70927;SDS011;58587;53.034;18.576;2023-03-30T10:21:30;23.57;;;13.33;;
70927;SDS011;58587;53.034;18.576;2023-03-30T10:26:37;23.20;;;13.13;;
70927;SDS011;58587;53.034;18.576;2023-03-30T10:29:04;26.87;;;15.63;;
70927;SDS011;58587;53.034;18.576;2023-03-30T10:31:36;21.50;;;13.63;;
70927;SDS011;58587;53.034;18.576;2023-03-30T10:34:03;21.13;;;12.80;;
70927;SDS011;58587;53.034;18.576;2023-03-30T10:36:38;21.83;;;13.10;;
70927;SDS011;58587;53.034;18.576;2023-03-30T10:39:05;21.08;;;13.50;;
70927;SDS011;58587;53.034;18.576;2023-03-30T10:41:31;29.23;;;16.48;;
70927;SDS011;58587;53.034;18.576;2023-03-30T10:44:03;19.73;;;12.47;;
70927;SDS011;58587;53.034;18.576;2023-03-30T10:46:30;23.25;;;12.80;;
70927;SDS011;58587;53.034;18.576;2023-03-30T10:48:59;21.27;;;12.10;;
70927;SDS011;58587;53.034;18.576;2023-03-30T10:51:42;21.27;;;12.88;;
70927;SDS011;58587;53.034;18.576;2023-03-30T10:57:19;26.70;;;14.93;;
70927;SDS011;58587;53.034;18.576;2023-03-30T11:05:21;27.48;;;16.92;;
70927;SDS011;58587;53.034;18.576;2023-03-30T11:10:34;30.17;;;17.38;;
70927;SDS011;58587;53.034;18.576;2023-03-30T11:13:18;35.05;;;19.98;;
70927;SDS011;58587;53.034;18.576;2023-03-30T11:15:49;25.60;;;14.63;;
70927;SDS011;58587;53.034;18.576;2023-03-30T11:18:28;23.33;;;13.60;;
70927;SDS011;58587;53.034;18.576;2023-03-30T11:34:59;36.33;;;19.60;;
70927;SDS011;58587;53.034;18.576;2023-03-30T11:37:44;26.77;;;15.38;;
70927;SDS011;58587;53.034;18.576;2023-03-30T11:42:44;20.50;;;11.27;;
70927;SDS011;58587;53.034;18.576;2023-03-30T11:48:14;18.83;;;11.27;;
70927;SDS011;58587;53.034;18.576;2023-03-30T11:56:43;18.73;;;12.33;;
70927;SDS011;58587;53.034;18.576;2023-03-30T12:04:46;28.23;;;17.05;;
70927;SDS011;58587;53.034;18.576;2023-03-30T12:07:23;20.77;;;12.40;;
70927;SDS011;58587;53.034;18.576;2023-03-30T12:09:57;23.53;;;14.03;;
70927;SDS011;58587;53.034;18.576;2023-03-30T12:12:32;21.90;;;13.25;;
70927;SDS011;58587;53.034;18.576;2023-03-30T12:17:48;23.83;;;15.18;;
70927;SDS011;58587;53.034;18.576;2023-03-30T12:20:25;24.63;;;15.32;;
70927;SDS011;58587;53.034;18.576;2023-03-30T12:28:49;17.50;;;10.75;;
70927;SDS011;58587;53.034;18.576;2023-03-30T12:31:22;25.67;;;16.77;;
70927;SDS011;58587;53.034;18.576;2023-03-30T12:34:08;26.05;;;14.63;;
70927;SDS011;58587;53.034;18.576;2023-03-30T12:36:47;19.63;;;12.00;;
70927;SDS011;58587;53.034;18.576;2023-03-30T12:39:20;16.15;;;10.48;;
70927;SDS011;58587;53.034;18.576;2023-03-30T12:42:05;16.70;;;11.15;;
70927;SDS011;58587;53.034;18.576;2023-03-30T12:44:34;15.77;;;10.60;;
70927;SDS011;58587;53.034;18.576;2023-03-30T13:05:40;19.33;;;11.02;;
70927;SDS011;58587;53.034;18.576;2023-03-30T13:08:08;17.45;;;10.52;;
70927;SDS011;58587;53.034;18.576;2023-03-30T13:10:43;21.80;;;14.95;;
70927;SDS011;58587;53.034;18.576;2023-03-30T13:13:15;14.63;;;10.70;;
70927;SDS011;58587;53.034;18.576;2023-03-30T13:15:47;20.42;;;14.25;;
70927;SDS011;58587;53.034;18.576;2023-03-30T13:18:31;15.70;;;10.13;;
70927;SDS011;58587;53.034;18.576;2023-03-30T13:21:02;15.88;;;9.93;;
70927;SDS011;58587;53.034;18.576;2023-03-30T13:23:32;30.97;;;16.13;;
70927;SDS011;58587;53.034;18.576;2023-03-30T13:26:01;26.02;;;14.48;;
70927;SDS011;58587;53.034;18.576;2023-03-30T13:36:35;15.23;;;9.50;;
70927;SDS011;58587;53.034;18.576;2023-03-30T13:39:18;15.23;;;9.93;;
70927;SDS011;58587;53.034;18.576;2023-03-30T13:50:18;35.13;;;25.60;;
70927;SDS011;58587;53.034;18.576;2023-03-30T13:52:51;28.90;;;16.80;;
70927;SDS011;58587;53.034;18.576;2023-03-30T13:55:24;19.40;;;12.25;;
70927;SDS011;58587;53.034;18.576;2023-03-30T13:57:56;85.15;;;36.95;;
70927;SDS011;58587;53.034;18.576;2023-03-30T14:08:37;85.63;;;76.75;;
70927;SDS011;58587;53.034;18.576;2023-03-30T14:13:44;70.95;;;53.70;;
70927;SDS011;58587;53.034;18.576;2023-03-30T14:16:16;71.72;;;59.33;;
70927;SDS011;58587;53.034;18.576;2023-03-30T14:18:45;63.53;;;56.07;;
70927;SDS011;58587;53.034;18.576;2023-03-30T14:21:13;37.08;;;30.10;;
70927;SDS011;58587;53.034;18.576;2023-03-30T14:23:49;25.67;;;16.27;;
70927;SDS011;58587;53.034;18.576;2023-03-30T14:26:17;25.47;;;17.87;;
70927;SDS011;58587;53.034;18.576;2023-03-30T14:28:47;28.55;;;19.02;;
70927;SDS011;58587;53.034;18.576;2023-03-30T14:31:18;36.88;;;25.20;;
70927;SDS011;58587;53.034;18.576;2023-03-30T14:33:45;60.60;;;44.30;;
70927;SDS011;58587;53.034;18.576;2023-03-30T14:36:12;221.18;;;117.65;;
70927;SDS011;58587;53.034;18.576;2023-03-30T14:38:40;120.77;;;64.23;;
70927;SDS011;58587;53.034;18.576;2023-03-30T14:41:09;51.17;;;28.15;;
70927;SDS011;58587;53.034;18.576;2023-03-30T14:43:40;85.88;;;43.67;;
70927;SDS011;58587;53.034;18.576;2023-03-30T14:46:14;71.25;;;34.55;;
70927;SDS011;58587;53.034;18.576;2023-03-30T14:48:41;122.37;;;62.30;;
70927;SDS011;58587;53.034;18.576;2023-03-30T14:51:21;58.85;;;32.00;;
70927;SDS011;58587;53.034;18.576;2023-03-30T14:53:51;57.38;;;32.17;;
70927;SDS011;58587;53.034;18.576;2023-03-30T14:56:17;51.05;;;29.90;;
70927;SDS011;58587;53.034;18.576;2023-03-30T14:58:45;48.77;;;25.37;;
70927;SDS011;58587;53.034;18.576;2023-03-30T15:01:14;27.92;;;14.27;;
70927;SDS011;58587;53.034;18.576;2023-03-30T15:03:42;34.38;;;17.75;;
70927;SDS011;58587;53.034;18.576;2023-03-30T15:06:10;45.60;;;25.13;;
70927;SDS011;58587;53.034;18.576;2023-03-30T15:08:40;49.63;;;26.45;;
70927;SDS011;58587;53.034;18.576;2023-03-30T15:11:20;58.57;;;32.27;;
70927;SDS011;58587;53.034;18.576;2023-03-30T15:13:55;54.25;;;31.88;;
70927;SDS011;58587;53.034;18.576;2023-03-30T15:16:26;73.07;;;56.83;;
70927;SDS011;58587;53.034;18.576;2023-03-30T15:18:54;50.47;;;33.88;;
70927;SDS011;58587;53.034;18.576;2023-03-30T15:21:25;70.53;;;34.15;;
70927;SDS011;58587;53.034;18.576;2023-03-30T15:23:54;28.30;;;13.80;;
70927;SDS011;58587;53.034;18.576;2023-03-30T15:26:22;38.17;;;16.60;;
70927;SDS011;58587;53.034;18.576;2023-03-30T15:28:51;124.50;;;49.53;;
70927;SDS011;58587;53.034;18.576;2023-03-30T15:31:20;251.50;;;107.10;;
70927;SDS011;58587;53.034;18.576;2023-03-30T15:33:48;68.60;;;32.63;;
70927;SDS011;58587;53.034;18.576;2023-03-30T15:36:17;54.83;;;29.27;;
70927;SDS011;58587;53.034;18.576;2023-03-30T15:38:48;55.42;;;26.45;;
70927;SDS011;58587;53.034;18.576;2023-03-30T15:41:17;56.28;;;26.40;;
70927;SDS011;58587;53.034;18.576;2023-03-30T15:43:56;105.50;;;43.60;;
70927;SDS011;58587;53.034;18.576;2023-03-30T15:46:23;70.80;;;31.85;;
70927;SDS011;58587;53.034;18.576;2023-03-30T15:48:51;61.88;;;28.20;;
70927;SDS011;58587;53.034;18.576;2023-03-30T15:54:14;86.05;;;35.72;;
70927;SDS011;58587;53.034;18.576;2023-03-30T15:59:36;42.15;;;19.92;;
70927;SDS011;58587;53.034;18.576;2023-03-30T16:02:12;50.80;;;23.63;;
70927;SDS011;58587;53.034;18.576;2023-03-30T16:04:41;65.38;;;31.80;;
70927;SDS011;58587;53.034;18.576;2023-03-30T16:07:09;48.17;;;31.20;;
70927;SDS011;58587;53.034;18.576;2023-03-30T16:09:42;53.10;;;32.78;;
70927;SDS011;58587;53.034;18.576;2023-03-30T16:12:11;86.97;;;38.93;;
70927;SDS011;58587;53.034;18.576;2023-03-30T16:14:39;162.18;;;66.13;;
70927;SDS011;58587;53.034;18.576;2023-03-30T16:17:04;72.00;;;28.53;;
70927;SDS011;58587;53.034;18.576;2023-03-30T16:19:30;148.77;;;51.90;;
70927;SDS011;58587;53.034;18.576;2023-03-30T16:21:55;209.87;;;77.07;;
70927;SDS011;58587;53.034;18.576;2023-03-30T16:24:20;80.90;;;32.13;;
70927;SDS011;58587;53.034;18.576;2023-03-30T16:26:46;101.87;;;41.73;;
70927;SDS011;58587;53.034;18.576;2023-03-30T16:29:18;72.90;;;30.33;;
70927;SDS011;58587;53.034;18.576;2023-03-30T16:31:45;193.20;;;86.32;;
70927;SDS011;58587;53.034;18.576;2023-03-30T16:34:11;290.47;;;127.87;;
70927;SDS011;58587;53.034;18.576;2023-03-30T16:36:37;71.03;;;33.58;;
70927;SDS011;58587;53.034;18.576;2023-03-30T16:39:02;223.73;;;98.07;;
70927;SDS011;58587;53.034;18.576;2023-03-30T16:41:29;94.50;;;39.97;;
70927;SDS011;58587;53.034;18.576;2023-03-30T16:43:55;73.88;;;34.63;;
70927;SDS011;58587;53.034;18.576;2023-03-30T16:46:20;86.70;;;42.43;;
70927;SDS011;58587;53.034;18.576;2023-03-30T16:48:46;101.00;;;46.57;;
70927;SDS011;58587;53.034;18.576;2023-03-30T16:51:12;72.03;;;32.17;;
70927;SDS011;58587;53.034;18.576;2023-03-30T16:53:39;86.55;;;38.95;;
70927;SDS011;58587;53.034;18.576;2023-03-30T16:56:04;67.50;;;31.97;;
70927;SDS011;58587;53.034;18.576;2023-03-30T16:58:30;83.57;;;58.90;;
70927;SDS011;58587;53.034;18.576;2023-03-30T17:00:55;65.63;;;45.77;;
70927;SDS011;58587;53.034;18.576;2023-03-30T17:03:26;93.70;;;55.20;;
70927;SDS011;58587;53.034;18.576;2023-03-30T17:05:53;64.30;;;33.20;;
70927;SDS011;58587;53.034;18.576;2023-03-30T17:08:19;89.43;;;48.67;;
70927;SDS011;58587;53.034;18.576;2023-03-30T17:10:50;91.30;;;42.57;;
70927;SDS011;58587;53.034;18.576;2023-03-30T17:13:16;166.75;;;80.80;;
70927;SDS011;58587;53.034;18.576;2023-03-30T17:15:41;129.57;;;63.20;;
70927;SDS011;58587;53.034;18.576;2023-03-30T17:18:14;121.97;;;62.53;;
70927;SDS011;58587;53.034;18.576;2023-03-30T17:20:42;181.97;;;104.77;;
70927;SDS011;58587;53.034;18.576;2023-03-30T17:23:11;215.65;;;116.68;;
70927;SDS011;58587;53.034;18.576;2023-03-30T17:25:37;169.93;;;90.20;;
70927;SDS011;58587;53.034;18.576;2023-03-30T17:28:03;118.30;;;60.47;;
70927;SDS011;58587;53.034;18.576;2023-03-30T17:30:34;103.38;;;53.60;;
70927;SDS011;58587;53.034;18.576;2023-03-30T17:33:00;85.55;;;45.05;;
70927;SDS011;58587;53.034;18.576;2023-03-30T17:35:26;92.30;;;49.57;;
70927;SDS011;58587;53.034;18.576;2023-03-30T17:37:52;145.47;;;73.67;;
70927;SDS011;58587;53.034;18.576;2023-03-30T17:40:25;111.05;;;55.78;;
70927;SDS011;58587;53.034;18.576;2023-03-30T17:42:52;104.75;;;52.22;;
70927;SDS011;58587;53.034;18.576;2023-03-30T17:45:18;101.20;;;61.93;;
70927;SDS011;58587;53.034;18.576;2023-03-30T17:47:45;76.47;;;55.28;;
70927;SDS011;58587;53.034;18.576;2023-03-30T17:50:21;65.82;;;49.20;;
70927;SDS011;58587;53.034;18.576;2023-03-30T17:52:50;61.27;;;41.07;;
70927;SDS011;58587;53.034;18.576;2023-03-30T17:55:16;56.90;;;35.45;;
70927;SDS011;58587;53.034;18.576;2023-03-30T17:57:43;86.07;;;49.80;;
70927;SDS011;58587;53.034;18.576;2023-03-30T18:00:16;83.50;;;42.40;;
70927;SDS011;58587;53.034;18.576;2023-03-30T18:02:47;78.95;;;40.25;;
70927;SDS011;58587;53.034;18.576;2023-03-30T18:05:14;67.72;;;36.67;;
70927;SDS011;58587;53.034;18.576;2023-03-30T18:07:40;109.20;;;52.13;;
70927;SDS011;58587;53.034;18.576;2023-03-30T18:12:47;65.80;;;35.53;;
70927;SDS011;58587;53.034;18.576;2023-03-30T18:15:13;64.53;;;41.15;;
70927;SDS011;58587;53.034;18.576;2023-03-30T18:17:39;69.80;;;48.20;;
70927;SDS011;58587;53.034;18.576;2023-03-30T18:20:15;64.35;;;44.85;;
70927;SDS011;58587;53.034;18.576;2023-03-30T18:22:44;56.83;;;38.13;;
70927;SDS011;58587;53.034;18.576;2023-03-30T18:25:09;43.43;;;28.50;;
70927;SDS011;58587;53.034;18.576;2023-03-30T18:27:35;56.10;;;35.90;;
70927;SDS011;58587;53.034;18.576;2023-03-30T18:30:01;77.40;;;49.10;;
70927;SDS011;58587;53.034;18.576;2023-03-30T18:32:38;89.75;;;58.38;;
70927;SDS011;58587;53.034;18.576;2023-03-30T18:35:04;71.43;;;43.10;;
70927;SDS011;58587;53.034;18.576;2023-03-30T18:37:30;98.28;;;51.03;;
70927;SDS011;58587;53.034;18.576;2023-03-30T18:39:56;72.93;;;39.13;;
70927;SDS011;58587;53.034;18.576;2023-03-30T18:42:21;65.33;;;35.27;;
70927;SDS011;58587;53.034;18.576;2023-03-30T18:44:46;60.73;;;33.20;;
70927;SDS011;58587;53.034;18.576;2023-03-30T18:47:12;78.27;;;39.70;;
70927;SDS011;58587;53.034;18.576;2023-03-30T18:49:37;65.17;;;36.33;;
70927;SDS011;58587;53.034;18.576;2023-03-30T18:52:03;126.82;;;58.83;;
70927;SDS011;58587;53.034;18.576;2023-03-30T18:54:28;110.73;;;60.60;;
70927;SDS011;58587;53.034;18.576;2023-03-30T18:56:54;114.90;;;56.33;;
70927;SDS011;58587;53.034;18.576;2023-03-30T18:59:19;91.43;;;46.88;;
70927;SDS011;58587;53.034;18.576;2023-03-30T19:01:47;93.93;;;49.30;;
70927;SDS011;58587;53.034;18.576;2023-03-30T19:04:12;65.03;;;35.70;;
70927;SDS011;58587;53.034;18.576;2023-03-30T19:06:37;69.47;;;47.45;;
70927;SDS011;58587;53.034;18.576;2023-03-30T19:09:03;73.33;;;45.83;;
70927;SDS011;58587;53.034;18.576;2023-03-30T19:11:28;73.70;;;44.07;;
70927;SDS011;58587;53.034;18.576;2023-03-30T19:13:53;64.50;;;39.50;;
70927;SDS011;58587;53.034;18.576;2023-03-30T19:16:19;63.47;;;41.23;;
70927;SDS011;58587;53.034;18.576;2023-03-30T19:18:46;50.92;;;28.13;;
70927;SDS011;58587;53.034;18.576;2023-03-30T19:21:16;58.70;;;34.72;;
70927;SDS011;58587;53.034;18.576;2023-03-30T19:23:42;50.92;;;29.10;;
70927;SDS011;58587;53.034;18.576;2023-03-30T19:26:07;45.23;;;26.00;;
70927;SDS011;58587;53.034;18.576;2023-03-30T19:28:33;42.95;;;25.77;;
70927;SDS011;58587;53.034;18.576;2023-03-30T19:31:03;47.57;;;27.47;;
70927;SDS011;58587;53.034;18.576;2023-03-30T19:33:30;44.58;;;26.30;;
70927;SDS011;58587;53.034;18.576;2023-03-30T19:35:55;31.80;;;18.77;;
70927;SDS011;58587;53.034;18.576;2023-03-30T19:38:21;35.07;;;24.23;;
70927;SDS011;58587;53.034;18.576;2023-03-30T19:40:46;43.00;;;21.97;;
70927;SDS011;58587;53.034;18.576;2023-03-30T19:43:11;32.80;;;19.67;;
70927;SDS011;58587;53.034;18.576;2023-03-30T19:45:37;33.10;;;20.73;;
70927;SDS011;58587;53.034;18.576;2023-03-30T19:48:03;33.43;;;19.93;;
70927;SDS011;58587;53.034;18.576;2023-03-30T19:50:28;33.22;;;19.15;;
70927;SDS011;58587;53.034;18.576;2023-03-30T19:52:54;32.43;;;21.30;;
70927;SDS011;58587;53.034;18.576;2023-03-30T19:55:19;34.97;;;20.40;;
70927;SDS011;58587;53.034;18.576;2023-03-30T19:57:45;30.80;;;17.70;;
70927;SDS011;58587;53.034;18.576;2023-03-30T20:00:11;28.23;;;16.77;;
70927;SDS011;58587;53.034;18.576;2023-03-30T20:02:40;29.33;;;17.25;;
70927;SDS011;58587;53.034;18.576;2023-03-30T20:05:06;32.75;;;20.85;;
70927;SDS011;58587;53.034;18.576;2023-03-30T20:07:36;32.65;;;18.98;;
70927;SDS011;58587;53.034;18.576;2023-03-30T20:10:03;31.50;;;17.83;;
70927;SDS011;58587;53.034;18.576;2023-03-30T20:12:29;26.38;;;15.75;;
70927;SDS011;58587;53.034;18.576;2023-03-30T20:14:55;41.70;;;19.80;;
70927;SDS011;58587;53.034;18.576;2023-03-30T20:17:22;47.85;;;23.20;;
70927;SDS011;58587;53.034;18.576;2023-03-30T20:19:48;28.27;;;15.45;;
70927;SDS011;58587;53.034;18.576;2023-03-30T20:22:13;23.50;;;13.20;;
70927;SDS011;58587;53.034;18.576;2023-03-30T20:24:39;21.30;;;12.23;;
70927;SDS011;58587;53.034;18.576;2023-03-30T20:27:04;17.93;;;10.73;;
70927;SDS011;58587;53.034;18.576;2023-03-30T20:29:30;18.00;;;9.88;;
70927;SDS011;58587;53.034;18.576;2023-03-30T20:31:56;15.90;;;9.55;;
70927;SDS011;58587;53.034;18.576;2023-03-30T20:34:22;17.73;;;7.80;;
70927;SDS011;58587;53.034;18.576;2023-03-30T20:36:48;13.98;;;7.38;;
70927;SDS011;58587;53.034;18.576;2023-03-30T20:39:14;30.27;;;12.13;;
70927;SDS011;58587;53.034;18.576;2023-03-30T20:41:40;12.48;;;6.20;;
70927;SDS011;58587;53.034;18.576;2023-03-30T20:44:07;12.60;;;6.13;;
70927;SDS011;58587;53.034;18.576;2023-03-30T20:46:44;11.15;;;6.10;;
70927;SDS011;58587;53.034;18.576;2023-03-30T20:49:11;9.20;;;5.33;;
70927;SDS011;58587;53.034;18.576;2023-03-30T20:51:36;11.02;;;5.22;;
70927;SDS011;58587;53.034;18.576;2023-03-30T20:54:02;12.27;;;4.80;;
70927;SDS011;58587;53.034;18.576;2023-03-30T20:56:28;10.90;;;5.40;;
70927;SDS011;58587;53.034;18.576;2023-03-30T20:58:54;9.23;;;4.83;;
70927;SDS011;58587;53.034;18.576;2023-03-30T21:01:21;10.25;;;5.18;;
70927;SDS011;58587;53.034;18.576;2023-03-30T21:03:53;6.70;;;3.90;;
70927;SDS011;58587;53.034;18.576;2023-03-30T21:06:21;8.65;;;3.60;;
70927;SDS011;58587;53.034;18.576;2023-03-30T21:08:48;22.38;;;8.98;;